Time;durP1;ratioP1;P1;durP2;ratioP2;P2;SDS_P1;SDS_P2;PMS_P1;PMS_P2;Temp;Humidity;BMP_temperature;BMP_pressure;BME280_temperature;BME280_humidity;BME280_pressure;Samples;Min_cycle;Max_cycle;Signal;HPM_P1;HPM_P2
2022/04/23 00:01:20;;;;;;;11.23;8.07;;;10.90;99.90;;;;;;4998977;28;20522;-78
2022/04/23 00:03:46;;;;;;;11.30;8.00;;;10.90;99.90;;;;;;5015302;28;20042;-77
2022/04/23 00:06:12;;;;;;;12.02;8.80;;;10.80;99.90;;;;;;4998848;28;20468;-77
2022/04/23 00:08:37;;;;;;;11.07;7.93;;;10.80;99.90;;;;;;4999266;28;20054;-78
2022/04/23 00:11:03;;;;;;;11.85;8.55;;;10.80;99.90;;;;;;4999537;28;20132;-78
2022/04/23 00:13:29;;;;;;;10.80;8.25;;;10.70;99.90;;;;;;4999192;28;20050;-78
2022/04/23 00:15:55;;;;;;;12.60;8.55;;;10.70;99.90;;;;;;4999010;28;20092;-79
2022/04/23 00:18:21;;;;;;;12.27;8.65;;;10.70;99.90;;;;;;5015129;28;20095;-78
2022/04/23 00:20:46;;;;;;;12.73;8.85;;;10.70;99.90;;;;;;5016333;28;20046;-77
2022/04/23 00:23:13;;;;;;;11.50;7.93;;;10.70;99.90;;;;;;4998672;28;20041;-78
2022/04/23 00:25:40;;;;;;;12.20;9.10;;;10.70;99.90;;;;;;5015628;28;20037;-77
2022/04/23 00:28:06;;;;;;;11.15;8.50;;;10.70;99.90;;;;;;5014923;28;20105;-78
2022/04/23 00:30:33;;;;;;;12.10;8.50;;;10.70;99.90;;;;;;4982699;28;20058;-78
2022/04/23 00:33:03;;;;;;;12.38;9.13;;;10.70;99.90;;;;;;5015023;28;20397;-77
2022/04/23 00:35:29;;;;;;;12.23;8.93;;;10.70;99.90;;;;;;4998635;28;20077;-77
2022/04/23 00:37:55;;;;;;;13.52;8.93;;;10.70;99.90;;;;;;5015019;28;20145;-77
2022/04/23 00:40:24;;;;;;;12.40;9.40;;;10.60;99.90;;;;;;5014375;28;20144;-77
2022/04/23 00:42:55;;;;;;;12.70;8.40;;;10.60;99.90;;;;;;5014911;28;20054;-77
2022/04/23 00:45:23;;;;;;;11.38;8.52;;;10.50;99.90;;;;;;5014440;28;20049;-78
2022/04/23 00:47:49;;;;;;;13.13;8.98;;;10.50;99.90;;;;;;5013897;28;20134;-77
2022/04/23 00:50:20;;;;;;;12.63;9.35;;;10.50;99.90;;;;;;5014155;28;20046;-78
2022/04/23 00:52:50;;;;;;;13.80;9.05;;;10.50;99.90;;;;;;5015461;28;20056;-78
2022/04/23 00:55:16;;;;;;;12.18;8.82;;;10.50;99.90;;;;;;4998375;28;20042;-78
2022/04/23 00:57:42;;;;;;;12.70;9.25;;;10.50;99.90;;;;;;5015327;28;20486;-78
2022/04/23 01:00:08;;;;;;;11.30;9.10;;;10.40;99.90;;;;;;5015087;28;20116;-78
2022/04/23 01:02:38;;;;;;;12.55;9.13;;;10.40;99.90;;;;;;4998198;28;20041;-78
2022/04/23 01:05:08;;;;;;;13.90;8.82;;;10.50;99.90;;;;;;4997872;28;20057;-78
2022/04/23 01:07:38;;;;;;;12.18;9.05;;;10.40;99.90;;;;;;4998717;28;20053;-78
2022/04/23 01:10:08;;;;;;;12.32;9.40;;;10.40;99.90;;;;;;5014152;28;20050;-78
2022/04/23 01:12:38;;;;;;;11.35;9.25;;;10.30;99.90;;;;;;5014115;28;20065;-78
2022/04/23 01:15:08;;;;;;;13.68;9.70;;;10.40;99.90;;;;;;5014579;28;20352;-77
2022/04/23 01:17:35;;;;;;;12.27;8.93;;;10.30;99.90;;;;;;4998489;28;20092;-77
2022/04/23 01:20:05;;;;;;;11.05;8.73;;;10.30;99.90;;;;;;5013965;28;20050;-78
2022/04/23 01:22:32;;;;;;;11.82;9.00;;;10.20;99.90;;;;;;5015468;28;20136;-78
2022/04/23 01:24:58;;;;;;;12.38;8.85;;;10.20;99.90;;;;;;5014854;28;20058;-78
2022/04/23 01:27:31;;;;;;;13.00;8.95;;;10.20;99.90;;;;;;4997645;28;20125;-77
2022/04/23 01:29:57;;;;;;;11.98;9.10;;;10.20;99.90;;;;;;4982487;28;20050;-77
2022/04/23 01:32:23;;;;;;;11.77;8.80;;;10.00;99.90;;;;;;5014450;28;20058;-78
2022/04/23 01:34:49;;;;;;;12.68;8.63;;;10.10;99.90;;;;;;4997038;28;20049;-78
2022/04/23 01:37:17;;;;;;;13.35;9.27;;;10.10;99.90;;;;;;4998110;28;20050;-78
2022/04/23 01:39:44;;;;;;;13.38;9.43;;;10.00;99.90;;;;;;5013697;28;20450;-78
2022/04/23 01:42:10;;;;;;;11.52;8.95;;;10.00;99.90;;;;;;5013601;28;20046;-79
2022/04/23 01:44:36;;;;;;;13.95;9.13;;;10.00;99.90;;;;;;4997211;28;20211;-78
2022/04/23 01:47:02;;;;;;;11.88;8.70;;;10.00;99.90;;;;;;5015142;28;20104;-78
2022/04/23 01:49:27;;;;;;;12.73;8.90;;;10.00;99.90;;;;;;4997975;28;20379;-78
2022/04/23 01:51:53;;;;;;;12.23;9.48;;;10.00;99.90;;;;;;5013298;28;20049;-78
2022/04/23 01:54:19;;;;;;;12.63;9.25;;;9.90;99.90;;;;;;5013873;28;20053;-78
2022/04/23 01:56:44;;;;;;;11.60;8.45;;;9.90;99.90;;;;;;5014049;28;20054;-78
2022/04/23 01:59:10;;;;;;;11.88;8.45;;;9.90;99.90;;;;;;4980386;28;20066;-77
2022/04/23 02:01:36;;;;;;;11.07;8.57;;;9.80;99.90;;;;;;5013317;28;20049;-77
2022/04/23 02:04:03;;;;;;;12.20;8.73;;;9.80;99.90;;;;;;4980595;28;20552;-78
2022/04/23 02:06:29;;;;;;;11.52;8.27;;;9.80;99.90;;;;;;4996917;28;20099;-77
2022/04/23 02:08:56;;;;;;;15.60;10.82;;;9.70;99.90;;;;;;5014090;28;20056;-78
2022/04/23 02:11:22;;;;;;;11.45;8.88;;;9.70;99.90;;;;;;5013157;28;20058;-78
2022/04/23 02:13:48;;;;;;;12.77;9.13;;;9.70;99.90;;;;;;5013824;28;20382;-77
2022/04/23 02:16:14;;;;;;;10.52;8.43;;;9.60;99.90;;;;;;4997184;28;20509;-77
2022/04/23 02:18:40;;;;;;;10.40;7.75;;;9.50;99.90;;;;;;4997460;28;20049;-78
2022/04/23 02:21:06;;;;;;;12.48;8.52;;;9.30;99.90;;;;;;5012934;28;20121;-78
2022/04/23 02:23:32;;;;;;;13.10;8.25;;;9.30;99.90;;;;;;5012739;28;20529;-77
2022/04/23 02:25:58;;;;;;;11.80;8.52;;;9.20;99.90;;;;;;4996733;28;20129;-77
2022/04/23 02:28:24;;;;;;;9.80;7.68;;;9.20;99.90;;;;;;5012839;28;20050;-77
2022/04/23 02:30:50;;;;;;;12.10;7.97;;;9.20;99.90;;;;;;5012738;28;20046;-78
2022/04/23 02:33:15;;;;;;;10.68;7.85;;;9.10;99.90;;;;;;5012435;28;20053;-78
2022/04/23 02:35:41;;;;;;;10.82;7.93;;;9.20;99.90;;;;;;5012860;28;20137;-78
2022/04/23 02:38:07;;;;;;;10.90;8.70;;;9.20;99.90;;;;;;5012791;28;20430;-77
2022/04/23 02:40:34;;;;;;;11.70;7.55;;;9.20;99.90;;;;;;4996401;28;20045;-77
2022/04/23 02:43:03;;;;;;;12.48;8.45;;;9.20;99.90;;;;;;5012609;28;20133;-77
2022/04/23 02:45:29;;;;;;;10.52;7.45;;;9.10;99.90;;;;;;4996564;28;20050;-77
2022/04/23 02:47:56;;;;;;;11.43;8.02;;;9.10;99.90;;;;;;5012906;28;20054;-77
2022/04/23 02:50:32;;;;;;;12.32;8.18;;;9.10;99.90;;;;;;5012592;28;20455;-77
2022/04/23 02:52:58;;;;;;;;;;;9.10;99.90;;;;;;5013040;28;20054;-77
2022/04/23 02:55:26;;;;;;;10.68;8.23;;;9.00;99.90;;;;;;5012620;28;19922;-77
2022/04/23 02:57:53;;;;;;;10.68;7.75;;;8.90;99.90;;;;;;5012245;28;20064;-78
2022/04/23 03:00:19;;;;;;;11.38;8.30;;;8.90;99.90;;;;;;5012563;28;20379;-78
2022/04/23 03:02:47;;;;;;;12.07;8.30;;;8.90;99.90;;;;;;5012120;28;20053;-79
2022/04/23 03:05:16;;;;;;;10.85;8.02;;;8.80;99.90;;;;;;4996009;28;20125;-77
2022/04/23 03:07:43;;;;;;;11.35;7.95;;;8.80;99.90;;;;;;5012769;28;20367;-78
2022/04/23 03:10:11;;;;;;;13.52;8.52;;;8.80;99.90;;;;;;5012459;28;20140;-78
2022/04/23 03:12:38;;;;;;;12.48;8.07;;;8.70;99.90;;;;;;5014973;28;20041;-77
2022/04/23 03:15:08;;;;;;;12.70;8.07;;;8.80;99.90;;;;;;5000210;28;20124;-78
2022/04/23 03:17:34;;;;;;;10.57;8.52;;;8.80;99.90;;;;;;5000720;28;20100;-78
2022/04/23 03:20:01;;;;;;;13.80;7.90;;;8.80;99.90;;;;;;5016419;28;20042;-78
2022/04/23 03:22:26;;;;;;;11.48;7.85;;;8.80;99.90;;;;;;5016925;28;20112;-78
2022/04/23 03:24:52;;;;;;;11.70;8.05;;;8.80;99.90;;;;;;5016168;28;20042;-77
2022/04/23 03:27:18;;;;;;;11.55;8.18;;;8.80;99.90;;;;;;5016041;28;20050;-78
2022/04/23 03:29:44;;;;;;;12.77;8.40;;;8.80;99.90;;;;;;5016844;28;20085;-77
2022/04/23 03:32:10;;;;;;;11.27;8.30;;;8.80;99.90;;;;;;5016033;28;20053;-78
2022/04/23 03:34:36;;;;;;;10.55;7.95;;;8.80;99.90;;;;;;5016386;28;20034;-78
2022/04/23 03:37:03;;;;;;;9.55;7.68;;;9.30;99.90;;;;;;5016488;28;20089;-77
2022/04/23 03:39:28;;;;;;;9.95;7.88;;;8.80;99.90;;;;;;5015695;28;20061;-78
2022/04/23 03:41:54;;;;;;;10.07;8.13;;;8.80;99.90;;;;;;4999478;28;20042;-77
2022/04/23 03:44:20;;;;;;;10.50;7.55;;;8.80;99.90;;;;;;5015827;28;20046;-80
2022/04/23 03:46:46;;;;;;;10.70;7.75;;;8.80;99.90;;;;;;4999185;28;20104;-78
2022/04/23 03:49:11;;;;;;;9.15;7.03;;;8.80;99.90;;;;;;5015692;28;20049;-78
2022/04/23 03:51:37;;;;;;;10.30;6.97;;;8.80;99.90;;;;;;5015897;28;20053;-79
2022/04/23 03:54:03;;;;;;;9.27;7.13;;;8.70;99.90;;;;;;4999400;28;20077;-77
2022/04/23 03:56:28;;;;;;;8.52;6.45;;;8.80;99.90;;;;;;5000086;28;20081;-77
2022/04/23 03:58:55;;;;;;;9.35;7.07;;;8.80;99.90;;;;;;5014872;28;20136;-77
2022/04/23 04:01:20;;;;;;;9.82;6.82;;;8.80;99.90;;;;;;4999135;28;20054;-80
2022/04/23 04:03:46;;;;;;;10.27;7.10;;;8.70;99.90;;;;;;5015348;28;20133;-78
2022/04/23 04:06:12;;;;;;;8.85;6.22;;;8.70;99.90;;;;;;5015162;28;20041;-77
2022/04/23 04:08:37;;;;;;;10.05;6.90;;;8.70;99.90;;;;;;4999016;28;20459;-78
2022/04/23 04:11:03;;;;;;;8.10;6.60;;;8.70;99.90;;;;;;5016782;28;20049;-78
2022/04/23 04:13:29;;;;;;;10.40;6.57;;;8.70;99.90;;;;;;5016060;28;20049;-78
2022/04/23 04:15:55;;;;;;;8.38;6.03;;;8.70;99.90;;;;;;5015218;28;20128;-77
2022/04/23 04:18:22;;;;;;;8.75;6.90;;;8.70;99.90;;;;;;5015089;28;20065;-77
2022/04/23 04:20:49;;;;;;;8.93;6.50;;;8.70;99.90;;;;;;5015092;28;20050;-77
2022/04/23 04:23:19;;;;;;;13.02;6.88;;;8.70;99.90;;;;;;5015035;28;20049;-77
2022/04/23 04:25:47;;;;;;;8.48;6.93;;;8.70;99.90;;;;;;5014775;28;20133;-77
2022/04/23 04:28:13;;;;;;;9.80;6.90;;;8.70;99.90;;;;;;5015723;28;20453;-77
2022/04/23 04:33:27;;;;;;;9.45;6.70;;;8.70;99.90;;;;;;4986954;28;20054;-77
2022/04/23 04:35:53;;;;;;;8.57;6.22;;;8.70;99.90;;;;;;5014855;28;20052;-77
2022/04/23 04:38:18;;;;;;;8.60;6.38;;;8.80;99.90;;;;;;5014722;28;20037;-77
2022/04/23 04:40:44;;;;;;;8.90;5.90;;;8.70;99.90;;;;;;5014616;28;20131;-78
2022/04/23 04:43:10;;;;;;;8.20;5.30;;;8.70;99.90;;;;;;4998635;28;20491;-78
2022/04/23 04:45:35;;;;;;;8.60;6.55;;;8.70;99.90;;;;;;4998252;28;20046;-77
2022/04/23 04:48:01;;;;;;;7.78;5.88;;;8.70;99.90;;;;;;4998536;28;20081;-77
2022/04/23 04:50:27;;;;;;;8.82;6.32;;;8.70;99.90;;;;;;5014377;28;20470;-77
2022/04/23 04:52:52;;;;;;;9.35;6.10;;;8.80;99.90;;;;;;5014586;28;20076;-77
2022/04/23 04:55:18;;;;;;;8.98;5.93;;;8.80;99.90;;;;;;5015233;28;20072;-78
2022/04/23 04:57:44;;;;;;;8.30;6.47;;;8.90;99.90;;;;;;5014258;28;20057;-78
2022/04/23 05:00:10;;;;;;;8.00;6.25;;;9.10;99.90;;;;;;5015113;28;20054;-76
2022/04/23 05:02:36;;;;;;;8.95;5.70;;;8.80;99.90;;;;;;5015506;28;20502;-78
2022/04/23 05:05:01;;;;;;;6.55;5.38;;;8.80;99.90;;;;;;4997782;28;20042;-77
2022/04/23 05:07:27;;;;;;;9.02;6.18;;;8.90;99.90;;;;;;5014248;28;20072;-77
2022/04/23 05:09:52;;;;;;;7.65;5.70;;;8.90;99.90;;;;;;5015713;28;20137;-78
2022/04/23 05:12:18;;;;;;;9.88;6.55;;;9.00;99.90;;;;;;5014391;28;20394;-77
2022/04/23 05:14:44;;;;;;;9.10;6.85;;;9.00;99.90;;;;;;5015013;28;20443;-79
2022/04/23 05:17:09;;;;;;;8.35;6.53;;;9.00;99.90;;;;;;5014019;28;20046;-76
2022/04/23 05:19:35;;;;;;;8.05;6.40;;;9.10;99.90;;;;;;5014738;28;20042;-76
2022/04/23 05:22:01;;;;;;;8.25;6.15;;;9.10;99.90;;;;;;4997426;28;20046;-77
2022/04/23 05:24:26;;;;;;;9.20;6.32;;;9.20;99.90;;;;;;4997813;28;20081;-77
2022/04/23 05:26:52;;;;;;;8.25;6.22;;;9.20;99.90;;;;;;4997226;28;20046;-77
2022/04/23 05:29:18;;;;;;;7.97;6.28;;;9.30;99.90;;;;;;5013848;28;20052;-76
2022/04/23 05:31:43;;;;;;;9.00;6.50;;;9.30;99.90;;;;;;5013753;28;20048;-76
2022/04/23 05:34:09;;;;;;;9.30;6.30;;;9.40;99.90;;;;;;4996897;28;20541;-78
2022/04/23 05:36:35;;;;;;;9.73;6.57;;;9.40;99.90;;;;;;4997006;28;20100;-77
2022/04/23 05:39:01;;;;;;;10.02;7.18;;;9.50;99.90;;;;;;4981121;28;20072;-77
2022/04/23 05:41:26;;;;;;;9.45;7.45;;;9.50;99.90;;;;;;5013906;28;20042;-78
2022/04/23 05:43:52;;;;;;;9.43;7.15;;;9.60;99.90;;;;;;5013558;28;20053;-77
2022/04/23 05:46:18;;;;;;;8.70;6.75;;;9.60;99.90;;;;;;5013333;28;20046;-78
2022/04/23 05:48:44;;;;;;;9.10;6.70;;;9.70;99.90;;;;;;4997977;28;20053;-77
2022/04/23 05:51:10;;;;;;;9.63;7.20;;;9.70;99.90;;;;;;5014216;28;20099;-76
2022/04/23 05:53:36;;;;;;;9.85;6.97;;;9.90;99.90;;;;;;5013443;28;20050;-77
2022/04/23 05:56:02;;;;;;;10.02;6.95;;;9.80;99.90;;;;;;5013087;28;20045;-77
2022/04/23 05:58:27;;;;;;;10.10;6.97;;;9.90;99.90;;;;;;4996629;28;20050;-76
2022/04/23 06:00:54;;;;;;;9.82;8.10;;;9.90;99.90;;;;;;5013340;28;20046;-77
2022/04/23 06:03:20;;;;;;;9.60;7.38;;;10.00;99.90;;;;;;4997510;28;20041;-78
2022/04/23 06:05:46;;;;;;;10.00;7.53;;;10.00;99.90;;;;;;5012998;28;20153;-75
2022/04/23 06:08:12;;;;;;;10.43;7.10;;;10.10;99.90;;;;;;4997521;28;20132;-79
2022/04/23 06:10:38;;;;;;;9.68;7.10;;;10.10;99.90;;;;;;4996437;28;20053;-77
2022/04/23 06:13:06;;;;;;;9.77;7.55;;;10.30;99.90;;;;;;5012803;28;20052;-77
2022/04/23 06:15:32;;;;;;;11.40;6.93;;;10.20;99.90;;;;;;5013054;28;20050;-77
2022/04/23 06:17:58;;;;;;;9.52;7.10;;;10.30;99.90;;;;;;5012999;28;20042;-75
2022/04/23 06:20:23;;;;;;;11.75;7.18;;;10.30;99.90;;;;;;5012980;28;20109;-77
2022/04/23 06:22:49;;;;;;;11.50;8.00;;;10.40;99.90;;;;;;5013866;28;20049;-76
2022/04/23 06:25:15;;;;;;;10.07;7.30;;;10.40;99.90;;;;;;5013528;28;20148;-77
2022/04/23 06:27:40;;;;;;;10.45;7.97;;;10.60;99.90;;;;;;5012867;28;20049;-75
2022/04/23 06:30:09;;;;;;;11.30;7.88;;;10.60;99.90;;;;;;5013457;28;20463;-77
2022/04/23 06:32:38;;;;;;;11.68;7.35;;;10.60;99.90;;;;;;4996752;28;20053;-76
2022/04/23 06:35:08;;;;;;;10.23;7.50;;;10.70;99.90;;;;;;4980501;28;20045;-76
2022/04/23 06:37:39;;;;;;;11.73;7.82;;;10.70;99.90;;;;;;5013530;28;20108;-78
2022/04/23 06:40:05;;;;;;;11.25;7.68;;;10.80;99.90;;;;;;4996720;28;20446;-77
2022/04/23 06:42:31;;;;;;;12.63;7.70;;;10.80;99.90;;;;;;5013439;28;20056;-78
2022/04/23 06:44:56;;;;;;;9.65;7.18;;;10.90;99.90;;;;;;4996084;28;20141;-78
2022/04/23 06:47:22;;;;;;;11.52;7.82;;;11.00;99.90;;;;;;4995159;28;20046;-75
2022/04/23 06:49:48;;;;;;;10.38;7.32;;;11.00;99.90;;;;;;5013541;28;20049;-77
2022/04/23 06:52:14;;;;;;;9.85;7.47;;;11.10;99.90;;;;;;5014117;28;20161;-77
2022/04/23 06:54:39;;;;;;;10.80;8.07;;;11.20;99.90;;;;;;4996289;28;20050;-76
2022/04/23 06:57:05;;;;;;;10.25;7.25;;;11.30;99.90;;;;;;4996347;28;20054;-77
2022/04/23 06:59:33;;;;;;;10.27;8.02;;;11.40;99.90;;;;;;5012414;28;20061;-77
2022/04/23 07:02:02;;;;;;;10.38;7.82;;;11.40;99.90;;;;;;5014077;28;20050;-75
2022/04/23 07:04:29;;;;;;;12.70;8.50;;;11.50;99.90;;;;;;5012221;28;20053;-76
2022/04/23 07:06:55;;;;;;;10.48;8.07;;;11.60;99.90;;;;;;5013353;28;20395;-77
2022/04/23 07:09:20;;;;;;;11.45;7.68;;;11.70;99.90;;;;;;5012485;28;20045;-76
2022/04/23 07:11:47;;;;;;;11.35;7.55;;;11.80;99.90;;;;;;5013424;28;20403;-77
2022/04/23 07:14:13;;;;;;;10.85;8.13;;;11.90;99.90;;;;;;5012339;28;20077;-78
2022/04/23 07:16:40;;;;;;;11.40;7.43;;;12.00;99.90;;;;;;5012204;28;20368;-78
2022/04/23 07:19:07;;;;;;;10.45;8.07;;;11.90;99.90;;;;;;5012325;28;20064;-78
2022/04/23 07:21:34;;;;;;;9.80;7.40;;;12.20;99.90;;;;;;5013331;28;20092;-77
2022/04/23 07:24:03;;;;;;;10.85;7.65;;;12.30;99.90;;;;;;5012230;28;20128;-76
2022/04/23 07:26:31;;;;;;;10.88;7.60;;;12.30;99.90;;;;;;5012928;28;20518;-77
2022/04/23 07:28:57;;;;;;;10.43;7.38;;;12.40;99.90;;;;;;5013018;28;20054;-77
2022/04/23 07:31:23;;;;;;;10.15;7.55;;;12.50;99.90;;;;;;5012163;28;20046;-79
2022/04/23 07:39:17;;;;;;;9.85;6.90;;;12.80;99.90;;;;;;5012212;28;20050;-78
2022/04/23 07:41:46;;;;;;;9.05;6.88;;;12.90;99.90;;;;;;4996643;28;20052;-75
2022/04/23 07:44:11;;;;;;;11.15;7.20;;;13.00;99.90;;;;;;5011959;28;20091;-78
2022/04/23 07:46:39;;;;;;;9.77;6.85;;;13.00;99.90;;;;;;5013049;28;20508;-76
2022/04/23 07:49:05;;;;;;;10.43;7.00;;;13.10;99.90;;;;;;5013570;28;20092;-76
2022/04/23 07:51:31;;;;;;;11.38;6.72;;;13.20;99.90;;;;;;5012161;28;20046;-76
2022/04/23 07:53:56;;;;;;;8.63;6.43;;;13.30;99.90;;;;;;5011847;28;20057;-75
2022/04/23 07:56:22;;;;;;;10.18;6.85;;;13.40;99.90;;;;;;5012588;28;20042;-75
2022/04/23 07:58:49;;;;;;;9.80;6.82;;;13.40;99.90;;;;;;5014158;28;20494;-77
2022/04/23 08:01:15;;;;;;;8.57;6.57;;;13.40;99.90;;;;;;4999020;28;20571;-77
2022/04/23 08:03:41;;;;;;;8.60;6.93;;;13.50;99.90;;;;;;5016261;28;20127;-76
2022/04/23 08:06:07;;;;;;;9.65;6.80;;;13.60;99.90;;;;;;5015626;28;20089;-76
2022/04/23 08:08:33;;;;;;;8.52;6.68;;;13.70;99.90;;;;;;4998843;28;20151;-76
2022/04/23 08:10:59;;;;;;;10.13;6.78;;;13.70;99.90;;;;;;5015274;28;20037;-77
2022/04/23 08:13:24;;;;;;;9.82;7.45;;;13.80;99.90;;;;;;4998947;28;20050;-77
2022/04/23 08:15:51;;;;;;;9.85;7.20;;;14.00;99.90;;;;;;4998520;28;20042;-75
2022/04/23 08:18:16;;;;;;;10.38;7.35;;;14.00;99.90;;;;;;5015823;28;20069;-76
2022/04/23 08:20:43;;;;;;;10.88;7.22;;;14.00;99.90;;;;;;5015116;28;20053;-75
2022/04/23 08:23:09;;;;;;;8.82;7.43;;;14.10;99.90;;;;;;4982610;28;20372;-77
2022/04/23 08:25:35;;;;;;;10.43;7.20;;;14.10;99.90;;;;;;5015631;28;20054;-76
2022/04/23 08:30:45;;;;;;;10.77;7.28;;;14.20;99.90;;;;;;5015693;28;20049;-77
2022/04/23 08:33:11;;;;;;;8.82;6.90;;;14.30;99.90;;;;;;4998503;28;20057;-78
2022/04/23 08:35:39;;;;;;;9.85;7.88;;;14.40;99.90;;;;;;5015765;28;20044;-77
2022/04/23 08:38:06;;;;;;;11.32;7.72;;;14.50;99.90;;;;;;5015008;28;20479;-80
2022/04/23 08:40:35;;;;;;;12.00;8.27;;;14.60;99.90;;;;;;4998758;28;20121;-79
2022/04/23 08:43:01;;;;;;;9.35;7.80;;;14.60;99.90;;;;;;4998311;28;20050;-77
2022/04/23 08:45:27;;;;;;;11.30;7.72;;;14.70;99.90;;;;;;5014559;28;20057;-77
2022/04/23 08:47:57;;;;;;;9.88;7.97;;;14.80;99.90;;;;;;5014500;28;20053;-79
2022/04/23 08:50:25;;;;;;;10.73;8.43;;;14.90;99.90;;;;;;5015300;28;20482;-77
2022/04/23 08:52:56;;;;;;;9.95;7.38;;;14.90;99.90;;;;;;4999104;28;20143;-78
2022/04/23 08:55:21;;;;;;;9.77;7.60;;;15.00;99.90;;;;;;4998856;28;20487;-77
2022/04/23 08:57:48;;;;;;;9.50;7.45;;;15.00;99.90;;;;;;5013757;28;20061;-81
2022/04/23 09:00:15;;;;;;;11.38;7.65;;;15.00;99.90;;;;;;4998032;28;20427;-80
2022/04/23 09:02:42;;;;;;;9.30;7.68;;;15.10;99.90;;;;;;5014009;28;20133;-79
2022/04/23 09:05:12;;;;;;;10.77;8.32;;;15.20;99.90;;;;;;4997986;28;20054;-76
2022/04/23 09:07:38;;;;;;;10.20;7.88;;;15.30;99.90;;;;;;5014188;28;20057;-78
2022/04/23 09:10:05;;;;;;;11.43;7.97;;;15.40;99.90;;;;;;4997772;28;20053;-78
2022/04/23 09:12:31;;;;;;;9.85;7.75;;;15.40;99.90;;;;;;5014051;28;20042;-79
2022/04/23 09:23:39;;;;;;;8.48;7.10;;;15.50;99.90;;;;;;5014056;28;20274;-79
2022/04/23 09:23:41;;;;;;;11.02;8.32;;;15.80;99.90;;;;;;5014715;28;20141;-77
2022/04/23 09:26:22;;;;;;;10.43;8.38;;;15.90;99.90;;;;;;4998845;28;20125;-77
2022/04/23 09:28:50;;;;;;;10.10;8.02;;;16.00;99.90;;;;;;5014072;28;20156;-77
2022/04/23 09:31:16;;;;;;;10.43;8.27;;;15.90;99.90;;;;;;5013929;28;20483;-81
2022/04/23 09:33:44;;;;;;;13.95;8.43;;;15.90;99.90;;;;;;4997233;28;20050;-78
2022/04/23 09:36:09;;;;;;;10.63;7.80;;;16.00;99.90;;;;;;5013689;28;20057;-76
2022/04/23 09:38:35;;;;;;;11.90;8.50;;;16.10;99.90;;;;;;4997293;28;20479;-78
2022/04/23 09:41:15;;;;;;;10.40;7.72;;;16.20;99.90;;;;;;4996944;28;20141;-76
2022/04/23 09:43:51;;;;;;;13.95;8.27;;;16.30;99.90;;;;;;5014351;28;20058;-76
2022/04/23 09:46:17;;;;;;;14.02;7.93;;;16.30;99.90;;;;;;4997035;28;20471;-78
2022/04/23 09:48:43;;;;;;;11.25;7.47;;;16.40;99.90;;;;;;5013317;28;20049;-78
2022/04/23 09:51:24;;;;;;;10.23;7.45;;;16.40;99.90;;;;;;5013695;28;20054;-76
2022/04/23 09:53:53;;;;;;;12.18;8.02;;;16.60;99.90;;;;;;5013360;28;20049;-78
2022/04/23 09:56:21;;;;;;;9.88;7.32;;;16.60;99.90;;;;;;4996684;28;20140;-78
2022/04/23 09:58:47;;;;;;;9.20;7.97;;;16.70;99.90;;;;;;4996032;28;20068;-79
2022/04/23 10:01:14;;;;;;;9.07;7.65;;;16.80;99.90;;;;;;4996794;28;20133;-78
2022/04/23 10:03:45;;;;;;;9.68;7.72;;;16.90;99.90;;;;;;5013674;28;20089;-79
2022/04/23 10:06:12;;;;;;;12.05;6.75;;;17.00;99.90;;;;;;5012995;28;20090;-77
2022/04/23 10:08:41;;;;;;;8.95;6.72;;;17.10;99.90;;;;;;4996440;28;20058;-77
2022/04/23 10:11:18;;;;;;;10.85;7.30;;;17.10;99.90;;;;;;4996713;28;20058;-77
2022/04/23 10:13:48;;;;;;;9.95;7.53;;;17.20;99.90;;;;;;4997002;28;20054;-79
2022/04/23 10:16:15;;;;;;;9.38;7.43;;;17.20;99.90;;;;;;4997375;28;20046;-78
2022/04/23 10:18:43;;;;;;;9.85;7.13;;;17.30;99.90;;;;;;5012903;28;20050;-78
2022/04/23 10:21:30;;;;;;;9.20;6.85;;;17.30;99.90;;;;;;5013662;28;20046;-79
2022/04/23 10:24:05;;;;;;;9.48;7.15;;;17.40;99.90;;;;;;5012878;28;20099;-80
2022/04/23 10:26:55;;;;;;;8.90;6.97;;;17.50;99.90;;;;;;4996262;28;20042;-81
2022/04/23 10:29:26;;;;;;;7.72;6.72;;;17.50;99.90;;;;;;4997308;28;20061;-80
2022/04/23 10:32:11;;;;;;;9.68;7.30;;;17.50;99.90;;;;;;5012702;28;20077;-80
2022/04/23 10:34:37;;;;;;;9.35;7.20;;;17.50;99.90;;;;;;4996268;28;20045;-80
2022/04/23 10:37:29;;;;;;;9.63;7.65;;;17.60;99.90;;;;;;4996544;28;20060;-77
2022/04/23 10:39:55;;;;;;;7.88;6.60;;;17.70;99.90;;;;;;5002324;28;20111;-78
2022/04/23 10:42:25;;;;;;;8.80;7.38;;;17.80;99.90;;;;;;5012919;28;20434;-78
2022/04/23 10:44:55;;;;;;;9.35;7.20;;;17.90;99.90;;;;;;5013428;28;20049;-79
2022/04/23 10:47:34;;;;;;;7.95;7.10;;;17.90;99.90;;;;;;4996023;28;20136;-79
2022/04/23 10:50:29;;;;;;;9.88;6.78;;;17.90;99.90;;;;;;4997091;28;20050;-79
2022/04/23 10:53:02;;;;;;;10.88;6.75;;;17.90;99.90;;;;;;4991823;28;20065;-80
2022/04/23 10:55:29;;;;;;;11.15;7.45;;;17.90;99.90;;;;;;5013404;28;20050;-78
2022/04/23 10:58:15;;;;;;;15.93;7.68;;;18.00;99.90;;;;;;4996019;28;20054;-80
2022/04/23 11:00:45;;;;;;;8.02;7.22;;;18.00;99.90;;;;;;4996521;28;20057;-79
2022/04/23 11:03:11;;;;;;;9.82;7.05;;;18.00;99.90;;;;;;4996070;28;20038;-80
2022/04/23 11:13:59;;;;;;;10.50;6.57;;;18.00;99.90;;;;;;4998841;28;20442;-79
2022/04/23 11:16:29;;;;;;;11.20;6.07;;;18.00;99.90;;;;;;5013049;28;20049;-78
2022/04/23 11:19:00;;;;;;;10.55;6.88;;;18.00;99.90;;;;;;4996838;28;20085;-80
2022/04/23 11:21:32;;;;;;;8.85;6.28;;;18.10;99.90;;;;;;4981009;28;20053;-79
2022/04/23 11:24:00;;;;;;;9.80;6.50;;;18.10;99.90;;;;;;5012514;28;20049;-78
2022/04/23 11:26:46;;;;;;;9.55;7.18;;;18.20;99.90;;;;;;4996069;28;20363;-75
2022/04/23 11:29:13;;;;;;;9.25;7.45;;;18.10;99.90;;;;;;5013082;28;20419;-77
2022/04/23 11:31:40;;;;;;;9.50;7.32;;;18.00;99.90;;;;;;5012283;28;20056;-80
2022/04/23 11:34:06;;;;;;;8.85;6.40;;;18.20;99.90;;;;;;4982810;28;20052;-78
2022/04/23 11:36:32;;;;;;;9.10;7.70;;;18.20;99.90;;;;;;4984204;28;20046;-78
2022/04/23 11:39:00;;;;;;;9.20;6.82;;;18.40;99.90;;;;;;5016045;28;20046;-81
2022/04/23 11:41:26;;;;;;;9.60;6.40;;;18.40;99.90;;;;;;4999987;28;20130;-79
2022/04/23 11:43:52;;;;;;;10.73;6.47;;;18.50;99.90;;;;;;5000128;28;20052;-79
2022/04/23 11:46:18;;;;;;;7.82;6.32;;;18.40;99.90;;;;;;5016380;28;20046;-79
2022/04/23 11:48:47;;;;;;;6.70;5.72;;;18.40;99.90;;;;;;4999360;28;20038;-80
2022/04/23 11:51:13;;;;;;;7.50;6.00;;;18.40;99.90;;;;;;5015614;28;20042;-79
2022/04/23 11:53:49;;;;;;;7.05;5.60;;;18.50;99.90;;;;;;5000172;28;20139;-82
2022/04/23 11:56:23;;;;;;;7.88;6.53;;;18.60;99.90;;;;;;4967656;28;20100;-80
2022/04/23 11:58:51;;;;;;;9.93;5.72;;;18.70;99.90;;;;;;5015131;28;20061;-80
2022/04/23 12:01:16;;;;;;;9.70;5.78;;;18.70;99.90;;;;;;5015467;28;20060;-77
2022/04/23 12:03:52;;;;;;;7.65;5.93;;;18.80;99.90;;;;;;4999591;28;20046;-77
2022/04/23 12:06:18;;;;;;;7.95;5.80;;;18.90;99.90;;;;;;5015844;28;20050;-78
2022/04/23 12:08:44;;;;;;;6.25;5.50;;;19.00;99.90;;;;;;4999001;28;20093;-77
2022/04/23 12:11:28;;;;;;;9.82;6.00;;;19.10;99.90;;;;;;5015327;28;20124;-78
2022/04/23 12:13:55;;;;;;;8.50;6.22;;;19.20;99.90;;;;;;5016124;28;20104;-79
2022/04/23 12:16:41;;;;;;;8.27;6.10;;;19.30;99.90;;;;;;4998933;28;20085;-80
2022/04/23 12:19:13;;;;;;;7.43;5.70;;;19.50;99.90;;;;;;5015518;28;20371;-79
2022/04/23 12:21:54;;;;;;;7.40;5.80;;;19.50;99.90;;;;;;4998716;28;20538;-78
2022/04/23 12:24:35;;;;;;;10.65;5.93;;;19.50;99.90;;;;;;5015871;28;20042;-81
2022/04/23 12:27:05;;;;;;;5.97;5.32;;;19.40;99.90;;;;;;5014845;28;20097;-82
2022/04/23 12:40:46;;;;;;;6.13;5.22;;;19.80;99.90;;;;;;5015001;28;20136;-78
2022/04/23 12:43:20;;;;;;;8.65;5.25;;;19.90;99.90;;;;;;5014448;28;20143;-80
2022/04/23 12:45:46;;;;;;;6.72;5.45;;;20.00;99.90;;;;;;4998001;28;20113;-80
2022/04/23 12:48:12;;;;;;;5.53;4.85;;;20.20;99.90;;;;;;4999143;28;20041;-80
2022/04/23 12:50:38;;;;;;;7.05;5.20;;;20.20;99.90;;;;;;4998136;28;20083;-80
2022/04/23 12:53:04;;;;;;;5.95;4.90;;;20.20;99.90;;;;;;4998105;28;20147;-78
2022/04/23 12:55:33;;;;;;;5.30;4.25;;;20.40;99.90;;;;;;4997884;28;20485;-81
2022/04/23 12:58:09;;;;;;;6.75;5.25;;;20.60;99.90;;;;;;5014009;28;20053;-78
2022/04/23 13:00:42;;;;;;;5.55;4.88;;;20.70;99.90;;;;;;5014616;28;20438;-77
2022/04/23 13:06:01;;;;;;;8.35;4.88;;;21.30;99.10;;;;;;5014160;28;20486;-77
2022/04/23 13:11:30;;;;;;;6.22;4.80;;;21.80;98.30;;;;;;5014561;28;20099;-80
2022/04/23 13:14:04;;;;;;;5.88;4.88;;;22.10;98.60;;;;;;5014912;28;20053;-81
2022/04/23 13:16:36;;;;;;;10.75;5.43;;;22.30;98.20;;;;;;5015128;28;20053;-81
2022/04/23 13:19:03;;;;;;;7.80;5.35;;;22.00;97.00;;;;;;4982586;28;20196;-80
2022/04/23 13:21:31;;;;;;;6.22;5.18;;;21.40;97.00;;;;;;4997657;28;20470;-82
2022/04/23 13:23:57;;;;;;;5.72;4.75;;;21.10;96.90;;;;;;5013961;28;20049;-78
2022/04/23 13:26:25;;;;;;;6.38;5.32;;;20.80;96.20;;;;;;4997547;28;20049;-80
2022/04/23 13:28:51;;;;;;;6.22;5.30;;;20.50;95.30;;;;;;4981501;28;20046;-81
2022/04/23 13:31:17;;;;;;;6.05;4.82;;;20.40;94.80;;;;;;4981881;28;20050;-80